Time;durP1;ratioP1;P1;durP2;ratioP2;P2;SDS_P1;SDS_P2;PMS_P1;PMS_P2;Temp;Humidity;BMP_temperature;BMP_pressure;BME280_temperature;BME280_humidity;BME280_pressure;Samples;Min_cycle;Max_cycle;Signal;HPM_P1;HPM_P2
2023/12/20 00:03:17;;;;;;;;;113.67;101.00;;;;;;;;6487516;47;8923;-66
2023/12/20 00:09:19;;;;;;;;;116.00;101.67;;;;;;;;6488403;39;8879;-67
2023/12/20 00:15:21;;;;;;;;;114.50;94.25;;;;;;;;6487528;47;8880;-65
2023/12/20 00:21:25;;;;;;;;;105.00;93.75;;;;;;;;6487250;39;9382;-66
2023/12/20 00:27:27;;;;;;;;;112.33;98.33;;;;;;;;6486739;31;8883;-67
2023/12/20 00:33:30;;;;;;;;;107.33;89.33;;;;;;;;6487474;39;8930;-67
2023/12/20 00:39:32;;;;;;;;;109.67;100.33;;;;;;;;6488616;39;8904;-66
2023/12/20 00:45:35;;;;;;;;;109.00;93.00;;;;;;;;6489840;39;9001;-66
2023/12/20 00:51:37;;;;;;;;;115.25;100.75;;;;;;;;6489392;31;8871;-66
2023/12/20 00:57:41;;;;;;;;;112.00;98.00;;;;;;;;6490341;39;8942;-66
2023/12/20 01:03:55;;;;;;;;;111.00;99.33;;;;;;;;6488810;46;8908;-66
2023/12/20 01:09:59;;;;;;;;;111.67;98.67;;;;;;;;6489889;39;8906;-67
2023/12/20 01:16:02;;;;;;;;;110.33;96.33;;;;;;;;6488757;31;8903;-66
2023/12/20 01:22:05;;;;;;;;;110.67;97.00;;;;;;;;6488908;46;8899;-65
2023/12/20 01:28:10;;;;;;;;;109.00;91.33;;;;;;;;6488579;39;8831;-65
2023/12/20 01:34:12;;;;;;;;;112.33;93.00;;;;;;;;6488414;39;8867;-66
2023/12/20 01:40:16;;;;;;;;;117.00;102.00;;;;;;;;6488821;46;8958;-65
2023/12/20 01:46:20;;;;;;;;;109.00;89.33;;;;;;;;6489107;39;8875;-65
2023/12/20 01:52:24;;;;;;;;;103.33;85.00;;;;;;;;6488587;46;8875;-66
2023/12/20 01:58:27;;;;;;;;;105.67;87.00;;;;;;;;6489014;31;8863;-66
2023/12/20 02:04:29;;;;;;;;;106.67;94.33;;;;;;;;6488586;39;9006;-66
2023/12/20 02:10:32;;;;;;;;;117.33;100.00;;;;;;;;6488726;39;9038;-65
2023/12/20 02:16:36;;;;;;;;;110.00;99.00;;;;;;;;6489511;31;8927;-65
2023/12/20 02:22:38;;;;;;;;;111.00;99.75;;;;;;;;6488284;39;8903;-66
2023/12/20 02:28:43;;;;;;;;;109.25;95.50;;;;;;;;6488880;39;9511;-66
2023/12/20 02:34:48;;;;;;;;;104.33;94.33;;;;;;;;6487573;46;8902;-66
2023/12/20 02:40:51;;;;;;;;;112.25;101.00;;;;;;;;6489715;39;8875;-66
2023/12/20 02:46:54;;;;;;;;;110.75;98.75;;;;;;;;6487690;31;8875;-65
2023/12/20 02:52:57;;;;;;;;;112.25;98.50;;;;;;;;6489392;31;8962;-66
2023/12/20 02:59:05;;;;;;;;;104.00;87.67;;;;;;;;6489060;39;9046;-66
2023/12/20 03:05:08;;;;;;;;;110.67;91.67;;;;;;;;6488305;39;8910;-66
2023/12/20 03:11:11;;;;;;;;;109.33;94.00;;;;;;;;6488065;39;8855;-66
2023/12/20 03:17:15;;;;;;;;;118.00;103.00;;;;;;;;6487568;39;8933;-63
2023/12/20 03:23:18;;;;;;;;;106.67;88.67;;;;;;;;6488341;39;8923;-65
2023/12/20 03:29:20;;;;;;;;;111.00;95.00;;;;;;;;6488263;39;8880;-66
2023/12/20 03:35:22;;;;;;;;;105.00;84.67;;;;;;;;6487747;31;8887;-63
2023/12/20 03:41:25;;;;;;;;;101.33;83.67;;;;;;;;6488109;39;9041;-63
2023/12/20 03:47:28;;;;;;;;;107.67;90.67;;;;;;;;6488474;39;9694;-64
2023/12/20 03:53:30;;;;;;;;;101.25;80.50;;;;;;;;6488493;39;8870;-64
2023/12/20 03:59:37;;;;;;;;;101.67;83.33;;;;;;;;6489120;31;8943;-64
2023/12/20 04:05:41;;;;;;;;;107.00;90.00;;;;;;;;6487384;39;8950;-67
2023/12/20 04:11:43;;;;;;;;;100.33;79.33;;;;;;;;6487793;31;8903;-65
2023/12/20 04:17:46;;;;;;;;;102.33;85.33;;;;;;;;6488671;46;8939;-64
2023/12/20 04:23:49;;;;;;;;;76.33;56.33;;;;;;;;6490335;39;9572;-64
2023/12/20 04:29:51;;;;;;;;;102.00;85.33;;;;;;;;6488876;39;8855;-65
2023/12/20 04:35:53;;;;;;;;;106.33;83.67;;;;;;;;6489556;39;8914;-63
2023/12/20 04:41:55;;;;;;;;;103.33;83.00;;;;;;;;6489828;46;8943;-65
2023/12/20 04:47:59;;;;;;;;;96.33;76.00;;;;;;;;6488376;46;8959;-64
2023/12/20 04:54:04;;;;;;;;;93.33;70.67;;;;;;;;6489125;39;8883;-64
2023/12/20 05:00:08;;;;;;;;;101.00;73.67;;;;;;;;6489254;39;8967;-65
2023/12/20 05:06:12;;;;;;;;;100.33;76.00;;;;;;;;6475086;39;9051;-71
2023/12/20 05:12:14;;;;;;;;;96.67;75.00;;;;;;;;6494428;39;8878;-72
